Time;durP1;ratioP1;P1;durP2;ratioP2;P2;SDS_P1;SDS_P2;PMS_P1;PMS_P2;Temp;Humidity;BMP_temperature;BMP_pressure;BME280_temperature;BME280_humidity;BME280_pressure;Samples;Min_cycle;Max_cycle;Signal;HPM_P1;HPM_P2
2022/12/04 00:00:44;;;;;;;22.33;15.77;;;;;;;7.36;100.00;102925.75;2062311;28;20504;-60
2022/12/04 00:01:45;;;;;;;20.47;15.97;;;;;;;7.36;100.00;102928.50;2062733;28;20569;-60
2022/12/04 00:02:45;;;;;;;19.30;15.60;;;;;;;6.97;100.00;102863.28;2062706;28;20188;-59
2022/12/04 00:03:46;;;;;;;22.47;16.00;;;;;;;6.95;100.00;102874.66;2063383;28;20217;-61
2022/12/04 00:04:47;;;;;;;20.33;16.07;;;;;;;7.27;100.00;102920.41;2062920;28;20215;-60
2022/12/04 00:05:47;;;;;;;19.03;15.30;;;;;;;7.03;100.00;102873.66;2063367;28;20432;-59
2022/12/04 00:06:48;;;;;;;19.17;16.17;;;;;;;7.37;100.00;102924.56;2064569;28;20271;-60
2022/12/04 00:07:48;;;;;;;18.83;15.03;;;;;;;7.35;100.00;102921.38;2064975;28;20188;-59
2022/12/04 00:08:50;;;;;;;20.50;15.20;;;;;;;7.37;100.00;102925.38;2065052;28;20209;-60
2022/12/04 00:09:51;;;;;;;19.43;15.07;;;;;;;7.40;100.00;102926.63;2064083;28;20247;-60
2022/12/04 00:10:51;;;;;;;20.03;14.93;;;;;;;7.43;100.00;102929.47;2064325;28;20444;-60
2022/12/04 00:11:51;;;;;;;19.90;15.07;;;;;;;7.48;100.00;102928.44;2064793;28;20185;-59
2022/12/04 00:12:52;;;;;;;19.23;14.93;;;;;;;7.50;100.00;102937.13;2064599;28;20654;-59
2022/12/04 00:13:53;;;;;;;17.03;14.03;;;;;;;7.47;100.00;102933.13;2064539;28;20191;-60
2022/12/04 00:14:53;;;;;;;18.02;14.38;;;;;;;7.49;100.00;102932.78;2064262;28;20567;-59
2022/12/04 00:15:54;;;;;;;18.40;14.23;;;;;;;7.49;100.00;102930.03;2064789;28;20232;-59
2022/12/04 00:16:54;;;;;;;16.43;13.27;;;;;;;7.50;100.00;102928.88;2064620;28;20195;-59
2022/12/04 00:17:55;;;;;;;16.57;13.50;;;;;;;7.32;100.00;102903.59;2064840;28;20202;-60
2022/12/04 00:18:56;;;;;;;17.67;14.00;;;;;;;7.46;100.00;102919.69;2064533;28;20185;-59
2022/12/04 00:19:56;;;;;;;16.40;12.87;;;;;;;7.59;100.00;102927.50;2064536;28;20293;-59
2022/12/04 00:20:57;;;;;;;17.50;13.97;;;;;;;7.57;100.00;102924.31;2064073;28;20675;-60
2022/12/04 00:21:57;;;;;;;17.50;13.43;;;;;;;7.52;100.00;102926.53;2064567;28;20664;-60
2022/12/04 00:22:57;;;;;;;16.60;13.03;;;;;;;7.51;100.00;102914.72;2064622;28;20205;-60
2022/12/04 00:23:58;;;;;;;18.83;13.53;;;;;;;7.52;100.00;102916.31;2064632;28;20551;-59
2022/12/04 00:24:58;;;;;;;17.00;13.73;;;;;;;7.53;100.00;102922.66;2064367;28;20634;-59
2022/12/04 00:26:05;;;;;;;15.43;13.60;;;;;;;7.54;100.00;102919.50;2064928;28;20285;-60
2022/12/04 00:27:05;;;;;;;15.00;12.50;;;;;;;7.56;100.00;102927.44;2064672;28;20598;-61
2022/12/04 00:28:05;;;;;;;15.83;13.37;;;;;;;7.50;100.00;102912.31;2064840;28;20441;-60
2022/12/04 00:29:06;;;;;;;16.03;12.10;;;;;;;7.48;100.00;102920.16;2064322;28;20276;-60
2022/12/04 00:30:07;;;;;;;15.50;12.90;;;;;;;7.24;100.00;102904.56;2064548;28;20261;-61
2022/12/04 00:31:13;;;;;;;15.90;12.60;;;;;;;7.32;100.00;102906.34;2064190;28;20242;-60
2022/12/04 00:32:14;;;;;;;15.03;12.10;;;;;;;7.47;100.00;102932.31;2064558;28;20176;-60
2022/12/04 00:33:14;;;;;;;16.57;13.57;;;;;;;7.49;100.00;102921.75;2064532;28;20427;-60
2022/12/04 00:34:14;;;;;;;14.77;12.87;;;;;;;7.48;100.00;102923.69;2064785;28;20189;-60
2022/12/04 00:35:15;;;;;;;14.27;11.77;;;;;;;7.51;100.00;102928.50;2064781;28;20220;-60
2022/12/04 00:36:18;;;;;;;15.63;11.93;;;;;;;7.45;100.00;102918.09;2064779;28;20180;-59
2022/12/04 00:37:18;;;;;;;14.63;12.30;;;;;;;7.44;100.00;102927.53;2064601;28;20204;-60
2022/12/04 00:38:18;;;;;;;16.00;12.30;;;;;;;7.42;100.00;102916.84;2064660;28;20544;-60
2022/12/04 00:39:19;;;;;;;14.37;11.80;;;;;;;7.45;100.00;102920.84;2064530;28;20189;-60
2022/12/04 00:40:19;;;;;;;15.10;12.63;;;;;;;7.47;100.00;102930.38;2064449;28;21758;-59
2022/12/04 00:41:23;;;;;;;15.93;12.20;;;;;;;7.11;100.00;102875.47;2063939;28;20217;-59
2022/12/04 00:42:24;;;;;;;15.43;13.07;;;;;;;7.34;100.00;102900.47;2064777;28;20236;-60
2022/12/04 00:43:24;;;;;;;15.07;12.00;;;;;;;7.17;100.00;102870.50;2064550;28;20488;-59
2022/12/04 00:44:24;;;;;;;14.83;12.03;;;;;;;7.48;100.00;102918.19;2064238;28;20199;-60
2022/12/04 00:45:25;;;;;;;14.53;12.33;;;;;;;7.37;100.00;102908.03;2064523;28;20673;-60
2022/12/04 00:46:25;;;;;;;17.00;13.07;;;;;;;7.46;100.00;102927.97;2064513;28;20219;-59
2022/12/04 00:47:26;;;;;;;16.17;12.63;;;;;;;7.46;100.00;102926.03;2064529;28;20189;-60
2022/12/04 00:48:26;;;;;;;16.20;12.57;;;;;;;7.40;100.00;102918.34;2064335;28;20198;-60
2022/12/04 00:49:27;;;;;;;17.57;12.63;;;;;;;7.50;100.00;102931.63;2064062;28;20185;-59
2022/12/04 00:50:27;;;;;;;16.73;13.30;;;;;;;7.48;100.00;102923.69;2064760;28;20181;-59
2022/12/04 00:51:28;;;;;;;14.93;12.67;;;;;;;7.51;100.00;102931.28;2063937;28;20195;-59
2022/12/04 00:52:28;;;;;;;16.57;13.77;;;;;;;7.52;100.00;102924.59;2064389;28;20222;-60
2022/12/04 00:53:29;;;;;;;15.97;12.73;;;;;;;7.50;100.00;102931.63;2063526;28;20192;-60
2022/12/04 00:54:30;;;;;;;17.03;13.40;;;;;;;7.53;100.00;102919.88;2064296;28;20210;-59
2022/12/04 00:55:30;;;;;;;17.50;13.60;;;;;;;7.50;100.00;102926.91;2064164;28;20240;-59
2022/12/04 00:56:31;;;;;;;16.40;12.57;;;;;;;7.52;100.00;102929.28;2064365;28;20269;-59
2022/12/04 00:57:31;;;;;;;16.37;13.33;;;;;;;7.51;100.00;102922.19;2064314;28;20192;-60
2022/12/04 00:58:32;;;;;;;16.00;13.20;;;;;;;6.90;100.00;102832.75;2064698;28;20182;-60
2022/12/04 00:59:32;;;;;;;16.00;12.97;;;;;;;7.50;100.00;102926.91;2064131;28;20194;-60
2022/12/04 01:00:37;;;;;;;17.23;13.23;;;;;;;7.50;100.00;102932.44;2064416;28;20640;-60
2022/12/04 01:01:38;;;;;;;15.97;13.07;;;;;;;7.50;100.00;102926.91;2063970;28;20189;-60
2022/12/04 01:02:38;;;;;;;16.07;12.70;;;;;;;7.51;100.00;102939.56;2064262;28;20437;-60
2022/12/04 01:03:40;;;;;;;15.73;13.00;;;;;;;6.74;100.00;102810.69;2064487;28;20200;-60
2022/12/04 01:04:40;;;;;;;16.27;13.38;;;;;;;7.53;100.00;102934.47;2064018;28;20216;-60
2022/12/04 01:05:44;;;;;;;15.57;12.73;;;;;;;7.55;100.00;102931.34;2064314;28;20185;-60
2022/12/04 01:06:45;;;;;;;16.73;13.60;;;;;;;6.96;100.00;102834.06;2064177;28;20197;-59
2022/12/04 01:07:45;;;;;;;16.73;12.80;;;;;;;7.53;100.00;102928.16;2064651;28;20959;-60
2022/12/04 01:08:47;;;;;;;15.93;12.73;;;;;;;7.13;100.00;102861.31;2064431;28;20956;-60
2022/12/04 01:09:48;;;;;;;17.40;13.37;;;;;;;7.58;100.00;102925.13;2063243;28;20191;-59
2022/12/04 01:10:48;;;;;;;16.30;12.67;;;;;;;7.56;100.00;102922.72;2063681;28;20441;-59
2022/12/04 01:11:48;;;;;;;15.07;12.00;;;;;;;7.58;100.00;102922.38;2064448;28;20183;-61
2022/12/04 01:12:49;;;;;;;15.30;12.30;;;;;;;7.14;100.00;102849.13;2064297;28;20194;-60
2022/12/04 01:13:50;;;;;;;15.30;12.00;;;;;;;7.59;100.00;102927.50;2064092;28;20181;-60
2022/12/04 01:14:50;;;;;;;17.17;13.20;;;;;;;7.29;100.00;102876.69;2063866;28;20432;-60
2022/12/04 01:15:51;;;;;;;16.33;13.10;;;;;;;7.56;100.00;102919.97;2064418;28;20178;-59
2022/12/04 01:16:52;;;;;;;15.47;12.03;;;;;;;7.52;100.00;102921.03;2063958;28;20270;-59
2022/12/04 01:17:52;;;;;;;16.10;12.40;;;;;;;7.39;100.00;102901.00;2064279;28;20212;-60
2022/12/04 01:18:52;;;;;;;15.80;12.73;;;;;;;7.46;100.00;102912.22;2064094;28;20224;-59
2022/12/04 01:19:53;;;;;;;17.10;12.77;;;;;;;7.50;100.00;102909.56;2063768;28;20576;-60
2022/12/04 01:20:53;;;;;;;14.97;11.83;;;;;;;7.54;100.00;102919.50;2063667;28;20197;-60
2022/12/04 01:21:54;;;;;;;16.53;12.43;;;;;;;7.55;100.00;102912.84;2064193;28;20257;-59
2022/12/04 01:22:54;;;;;;;14.37;12.27;;;;;;;7.58;100.00;102914.09;2064101;28;20224;-60
2022/12/04 01:23:55;;;;;;;14.70;11.63;;;;;;;7.41;100.00;102895.94;2064297;28;20180;-60
2022/12/04 01:24:56;;;;;;;16.77;12.53;;;;;;;7.46;100.00;102898.44;2063962;28;20192;-60
2022/12/04 01:25:57;;;;;;;16.37;12.33;;;;;;;7.54;100.00;102905.72;2064314;28;20187;-60
2022/12/04 01:26:58;;;;;;;16.07;12.37;;;;;;;7.50;100.00;102904.03;2064053;28;20196;-60
2022/12/04 01:27:58;;;;;;;17.07;11.57;;;;;;;6.85;100.00;102805.44;2064244;28;20932;-60
2022/12/04 01:28:59;;;;;;;15.37;11.90;;;;;;;6.80;100.00;102814.78;2064090;28;20195;-59
2022/12/04 01:29:59;;;;;;;17.37;11.37;;;;;;;6.77;100.00;102818.25;2063909;28;20215;-59
2022/12/04 01:31:03;;;;;;;13.67;10.77;;;;;;;7.25;100.00;102897.91;2062953;28;20227;-60
2022/12/04 01:32:04;;;;;;;14.82;11.55;;;;;;;7.29;100.00;102898.75;2064109;28;20187;-60
2022/12/04 01:33:04;;;;;;;13.83;10.70;;;;;;;7.34;100.00;102906.00;2064095;28;20193;-60
2022/12/04 01:34:05;;;;;;;14.40;11.03;;;;;;;7.31;100.00;102901.16;2063864;28;20572;-59
2022/12/04 01:35:06;;;;;;;14.83;10.53;;;;;;;6.92;100.00;102850.53;2064031;28;20185;-60
2022/12/04 01:36:09;;;;;;;14.40;10.87;;;;;;;7.33;100.00;102918.97;2064013;28;20196;-59
2022/12/04 01:37:10;;;;;;;16.30;10.20;;;;;;;7.32;100.00;102903.59;2064204;28;20197;-60
2022/12/04 01:38:10;;;;;;;13.80;10.40;;;;;;;7.37;100.00;102913.53;2064078;28;20476;-60
2022/12/04 01:39:11;;;;;;;12.40;9.17;;;;;;;6.90;100.00;102839.06;2063701;28;20358;-60
2022/12/04 01:40:15;;;;;;;13.13;9.53;;;;;;;6.51;100.00;102787.63;2064088;28;20551;-60
2022/12/04 01:41:20;;;;;;;12.37;8.93;;;;;;;7.27;100.00;102906.59;2062986;28;20582;-60
2022/12/04 01:42:20;;;;;;;13.50;9.67;;;;;;;7.19;100.00;102896.56;2064173;28;20431;-59
2022/12/04 01:43:22;;;;;;;12.90;9.20;;;;;;;7.26;100.00;102913.28;2064165;28;20438;-60
2022/12/04 01:44:25;;;;;;;11.27;8.40;;;;;;;7.21;100.00;102912.72;2063835;28;20208;-59
2022/12/04 01:45:40;;;;;;;10.60;8.82;;;;;;;7.18;100.00;102914.25;2064085;28;20799;-59
2022/12/04 01:46:43;;;;;;;12.47;9.27;;;;;;;6.61;100.00;102805.59;2063783;28;20192;-59
2022/12/04 01:47:44;;;;;;;12.63;9.17;;;;;;;7.17;100.00;102907.13;2064264;28;20438;-60
2022/12/04 01:48:51;;;;;;;10.83;8.50;;;;;;;7.01;100.00;102902.75;2063860;28;20453;-60
2022/12/04 01:49:51;;;;;;;11.70;8.98;;;;;;;7.01;100.00;102902.75;2063705;28;20263;-59
2022/12/04 01:50:56;;;;;;;12.57;8.37;;;;;;;7.03;100.00;102909.50;2062944;28;20268;-61
2022/12/04 01:52:01;;;;;;;11.20;8.33;;;;;;;7.00;100.00;102903.91;2063925;28;20228;-60
2022/12/04 01:53:01;;;;;;;10.68;8.40;;;;;;;6.94;100.00;102897.03;2063739;28;20432;-59
2022/12/04 01:54:07;;;;;;;10.93;8.40;;;;;;;7.00;100.00;102903.91;2064019;28;20283;-60
2022/12/04 01:55:08;;;;;;;13.27;9.15;;;;;;;6.98;100.00;102900.72;2063224;28;20184;-60
2022/12/04 01:56:09;;;;;;;11.60;8.63;;;;;;;7.01;100.00;102900.78;2064130;28;20272;-60
2022/12/04 01:57:18;;;;;;;12.80;9.20;;;;;;;7.04;100.00;102918.59;2063961;28;20555;-59
2022/12/04 01:58:24;;;;;;;11.47;9.00;;;;;;;7.06;100.00;102903.28;2064084;28;20200;-59
2022/12/04 01:59:29;;;;;;;11.18;8.68;;;;;;;6.80;100.00;102866.34;2063535;28;20800;-60
2022/12/04 02:00:30;;;;;;;11.70;8.65;;;;;;;6.98;100.00;102907.00;2063861;28;20192;-60
2022/12/04 02:01:37;;;;;;;12.57;9.53;;;;;;;6.99;100.00;102897.59;2063445;28;20197;-59
2022/12/04 02:02:41;;;;;;;12.93;8.87;;;;;;;7.03;100.00;102903.22;2063973;28;20194;-59
2022/12/04 02:03:42;;;;;;;11.50;8.85;;;;;;;6.81;100.00;102888.03;2063882;28;20442;-59
2022/12/04 02:04:43;;;;;;;12.57;9.13;;;;;;;6.93;100.00;102900.97;2063353;28;20219;-60
2022/12/04 02:05:44;;;;;;;12.02;8.88;;;;;;;6.93;100.00;102895.44;2063984;28;20272;-60
2022/12/04 02:06:44;;;;;;;12.57;9.13;;;;;;;6.91;100.00;102883.97;2063565;28;20191;-59
2022/12/04 02:07:47;;;;;;;11.23;8.93;;;;;;;6.99;100.00;102896.78;2064144;28;20697;-60
2022/12/04 02:08:48;;;;;;;11.82;8.82;;;;;;;6.82;100.00;102873.09;2063898;28;20187;-59
2022/12/04 02:09:54;;;;;;;12.23;9.07;;;;;;;7.02;100.00;102894.13;2063235;28;20203;-60
2022/12/04 02:11:08;;;;;;;12.53;8.67;;;;;;;7.05;100.00;102895.38;2063300;28;20177;-59
2022/12/04 02:12:18;;;;;;;10.70;8.70;;;;;;;7.06;100.00;102896.97;2063759;28;20452;-59
2022/12/04 02:13:29;;;;;;;11.60;9.27;;;;;;;7.06;100.00;102892.25;2063677;28;20183;-60
2022/12/04 02:15:06;;;;;;;10.93;8.40;;;;;;;7.04;100.00;102893.78;2063710;28;20661;-59
2022/12/04 02:16:06;;;;;;;12.47;8.67;;;;;;;7.03;100.00;102892.19;2063007;28;20417;-60
2022/12/04 02:17:35;;;;;;;11.67;9.03;;;;;;;7.01;100.00;102886.19;2063662;28;20423;-60
2022/12/04 02:18:45;;;;;;;10.18;8.23;;;;;;;7.05;100.00;102887.09;2063714;28;20199;-60
2022/12/04 02:20:19;;;;;;;12.40;9.50;;;;;;;7.05;100.00;102889.84;2063688;28;20742;-60
2022/12/04 02:21:39;;;;;;;10.82;8.98;;;;;;;7.05;100.00;102900.88;2063304;28;20259;-60
2022/12/04 02:22:56;;;;;;;11.15;8.60;;;;;;;6.92;100.00;102875.34;2063529;28;20240;-59
2022/12/04 02:24:14;;;;;;;12.52;9.13;;;;;;;7.05;100.00;102898.94;2063763;28;20637;-59
2022/12/04 02:25:38;;;;;;;11.60;8.97;;;;;;;7.06;100.00;102902.47;2063196;28;20184;-59
2022/12/04 02:26:46;;;;;;;11.90;9.37;;;;;;;7.07;100.00;102895.84;2063155;28;20432;-59
2022/12/04 02:28:16;;;;;;;11.80;8.90;;;;;;;7.06;100.00;102896.97;2063714;28;20944;-59
2022/12/04 02:29:25;;;;;;;13.27;10.47;;;;;;;7.03;100.00;102889.41;2056072;28;20458;-60
2022/12/04 02:30:29;;;;;;;13.20;10.25;;;;;;;7.02;100.00;102893.34;2063828;28;20537;-60
2022/12/04 02:32:05;;;;;;;15.27;11.80;;;;;;;6.92;100.00;102882.81;2062991;28;20188;-60
2022/12/04 02:33:22;;;;;;;14.10;10.82;;;;;;;6.95;100.00;102885.66;2049427;28;20679;-60
2022/12/04 02:34:28;;;;;;;14.60;11.35;;;;;;;7.02;100.00;102888.59;2063220;28;20248;-61
2022/12/04 02:35:53;;;;;;;14.05;10.77;;;;;;;7.00;100.00;102884.59;2063858;28;20275;-59
2022/12/04 02:37:04;;;;;;;14.77;10.75;;;;;;;6.94;100.00;102884.06;2063667;28;20208;-60
2022/12/04 02:38:37;;;;;;;13.95;11.13;;;;;;;6.88;100.00;102888.22;2063693;28;20198;-60
2022/12/04 02:40:07;;;;;;;13.52;10.43;;;;;;;6.75;100.00;102894.16;2063411;28;20558;-60
2022/12/04 02:41:14;;;;;;;13.52;10.95;;;;;;;6.82;100.00;102897.13;2051710;28;20279;-59
2022/12/04 02:42:36;;;;;;;13.57;11.02;;;;;;;6.88;100.00;102890.97;2063840;28;20191;-59
2022/12/04 02:43:44;;;;;;;14.88;11.38;;;;;;;6.95;100.00;102888.44;2063882;28;20185;-59
2022/12/04 02:44:55;;;;;;;12.57;10.83;;;;;;;6.98;100.00;102887.69;2063595;28;20179;-59
2022/12/04 02:46:00;;;;;;;14.70;11.80;;;;;;;6.97;100.00;102893.59;2063107;28;20530;-59
2022/12/04 02:47:06;;;;;;;16.30;11.85;;;;;;;6.94;100.00;102891.53;2063450;28;20463;-60
2022/12/04 02:48:07;;;;;;;15.68;12.38;;;;;;;6.14;100.00;102777.94;2063405;28;20279;-60
2022/12/04 02:49:15;;;;;;;15.57;12.20;;;;;;;6.93;100.00;102895.44;2063079;28;20192;-59
2022/12/04 02:50:21;;;;;;;15.55;11.82;;;;;;;6.94;100.00;102903.38;2063797;28;20518;-60
2022/12/04 02:51:26;;;;;;;18.13;13.45;;;;;;;6.93;100.00;102890.72;2063334;28;20200;-60
2022/12/04 02:52:44;;;;;;;16.87;12.13;;;;;;;6.94;100.00;102886.84;2063124;28;20204;-60
2022/12/04 02:54:00;;;;;;;17.63;13.00;;;;;;;6.32;100.00;102794.97;2063628;28;20959;-60
2022/12/04 02:55:09;;;;;;;17.48;12.77;;;;;;;6.92;100.00;102889.13;2062752;28;20637;-60
2022/12/04 02:56:15;;;;;;;16.20;12.80;;;;;;;7.01;100.00;102886.19;2063718;28;20200;-60
2022/12/04 02:57:19;;;;;;;16.15;12.80;;;;;;;7.01;100.00;102892.53;2063560;28;20440;-59
2022/12/04 02:58:35;;;;;;;17.92;13.73;;;;;;;7.01;100.00;102886.19;2063061;28;20226;-59
2022/12/04 02:59:40;;;;;;;16.23;13.23;;;;;;;7.06;100.00;102899.72;2063198;28;20193;-60
2022/12/04 03:00:44;;;;;;;19.15;14.13;;;;;;;7.09;100.00;102888.00;2063236;28;20452;-59
2022/12/04 03:01:50;;;;;;;17.13;13.53;;;;;;;7.09;100.00;102883.28;2063637;28;20192;-59
2022/12/04 03:03:17;;;;;;;18.10;13.40;;;;;;;7.13;100.00;102884.16;2063501;28;21026;-60
2022/12/04 03:04:29;;;;;;;19.77;13.48;;;;;;;7.12;100.00;102885.34;2063454;28;20985;-60
2022/12/04 03:05:51;;;;;;;18.50;13.45;;;;;;;7.10;100.00;102873.88;2063706;28;20240;-59
2022/12/04 03:06:57;;;;;;;18.42;14.18;;;;;;;7.11;100.00;102882.91;2063101;28;20634;-60
2022/12/04 03:08:03;;;;;;;17.67;14.05;;;;;;;6.44;100.00;102770.09;2063590;28;20177;-60
2022/12/04 03:09:30;;;;;;;18.00;13.77;;;;;;;7.15;100.00;102881.06;2063440;28;20603;-60
2022/12/04 03:10:35;;;;;;;17.92;13.77;;;;;;;7.13;100.00;102884.16;2052126;28;20206;-59
2022/12/04 03:11:39;;;;;;;18.73;13.77;;;;;;;7.16;100.00;102896.44;2063076;28;20273;-60
2022/12/04 03:13:10;;;;;;;19.00;14.20;;;;;;;7.03;100.00;102859.09;2063281;28;20431;-59
2022/12/04 03:14:20;;;;;;;19.42;14.18;;;;;;;7.20;100.00;102878.84;2062475;28;20460;-59
2022/12/04 03:15:49;;;;;;;19.10;13.70;;;;;;;7.20;100.00;102875.28;2063558;28;20211;-60
2022/12/04 03:16:54;;;;;;;19.23;13.73;;;;;;;7.22;100.00;102878.50;2062824;28;20440;-59
2022/12/04 03:18:03;;;;;;;18.25;14.05;;;;;;;7.25;100.00;102877.78;2063580;28;20538;-59
2022/12/04 03:19:09;;;;;;;20.20;15.13;;;;;;;6.97;100.00;102855.00;2063282;28;20185;-59
2022/12/04 03:20:13;;;;;;;18.10;14.23;;;;;;;6.86;100.00;102832.66;2062658;28;20637;-59
2022/12/04 03:21:18;;;;;;;18.63;14.48;;;;;;;7.00;100.00;102851.53;2062793;28;20676;-59
2022/12/04 03:22:21;;;;;;;19.35;14.73;;;;;;;7.17;100.00;102878.75;2063552;28;20195;-59
2022/12/04 03:23:33;;;;;;;20.23;15.15;;;;;;;7.18;100.00;102883.91;2063434;28;20214;-59
2022/12/04 03:24:39;;;;;;;17.27;13.93;;;;;;;7.20;100.00;102881.63;2063222;28;20216;-59
2022/12/04 03:26:00;;;;;;;18.83;14.68;;;;;;;7.21;100.00;102893.44;2062860;28;20204;-59
2022/12/04 03:27:12;;;;;;;19.27;14.98;;;;;;;7.19;100.00;102891.03;2062259;28;20217;-60
2022/12/04 03:28:33;;;;;;;20.25;14.70;;;;;;;6.99;100.00;102861.75;2063401;28;20633;-59
2022/12/04 03:29:49;;;;;;;19.63;15.35;;;;;;;7.17;100.00;102884.28;2063047;28;20655;-59
2022/12/04 03:30:58;;;;;;;20.00;13.93;;;;;;;7.18;100.00;102885.88;2062931;28;20212;-60
2022/12/04 03:32:42;;;;;;;19.77;15.10;;;;;;;7.21;100.00;102883.22;2068937;28;20175;-59
2022/12/04 03:33:46;;;;;;;18.15;14.05;;;;;;;7.18;100.00;102878.38;2031288;29;20881;-59
2022/12/04 03:34:57;;;;;;;18.45;13.95;;;;;;;6.84;100.00;102829.47;2033102;29;20613;-60
2022/12/04 03:36:07;;;;;;;18.58;14.07;;;;;;;7.15;100.00;102881.88;2044970;28;20582;-59
2022/12/04 03:37:14;;;;;;;19.27;14.00;;;;;;;7.13;100.00;102869.59;2063192;28;20203;-59
2022/12/04 03:38:30;;;;;;;20.13;14.97;;;;;;;7.20;100.00;102878.03;2063539;28;20495;-59
2022/12/04 03:39:38;;;;;;;18.88;14.10;;;;;;;7.22;100.00;102870.22;2063022;28;20533;-60
2022/12/04 03:40:44;;;;;;;17.05;13.57;;;;;;;6.55;100.00;102765.66;2063281;28;20253;-60
2022/12/04 03:41:48;;;;;;;18.05;13.10;;;;;;;7.23;100.00;102877.34;2064793;28;20200;-59
2022/12/04 03:42:57;;;;;;;16.00;13.32;;;;;;;7.21;100.00;102885.97;2064857;28;20669;-60
2022/12/04 03:44:06;;;;;;;18.25;13.88;;;;;;;6.86;100.00;102821.63;2064998;28;20178;-59
2022/12/04 03:45:21;;;;;;;17.38;12.77;;;;;;;7.22;100.00;102879.28;2064927;28;20177;-59
2022/12/04 03:46:52;;;;;;;16.42;12.98;;;;;;;7.19;100.00;102873.69;2064806;28;20223;-59
2022/12/04 03:48:04;;;;;;;15.23;12.50;;;;;;;7.03;100.00;102853.56;2064936;28;20173;-59
2022/12/04 03:49:30;;;;;;;15.80;12.55;;;;;;;7.17;100.00;102873.25;2064480;28;20203;-60
2022/12/04 03:50:34;;;;;;;18.73;13.30;;;;;;;7.18;100.00;102880.38;2065036;28;20183;-60
2022/12/04 03:51:39;;;;;;;18.70;12.90;;;;;;;7.02;100.00;102879.56;2064566;28;20288;-60
2022/12/04 03:53:01;;;;;;;18.10;13.55;;;;;;;6.94;100.00;102878.56;2064921;28;20651;-59
2022/12/04 03:54:08;;;;;;;18.80;13.25;;;;;;;6.88;100.00;102881.91;2064838;28;20182;-61
2022/12/04 03:55:28;;;;;;;18.92;13.65;;;;;;;6.88;100.00;102881.91;2064785;28;20670;-60
2022/12/04 03:56:34;;;;;;;17.42;12.65;;;;;;;6.98;100.00;102909.75;2064956;28;20588;-59
2022/12/04 03:57:39;;;;;;;17.63;13.48;;;;;;;7.02;100.00;102893.34;2064506;28;20271;-59
2022/12/04 03:58:45;;;;;;;18.60;13.07;;;;;;;6.99;100.00;102894.03;2064318;28;20679;-60
2022/12/04 03:59:54;;;;;;;17.42;12.68;;;;;;;7.00;100.00;102904.72;2064757;28;20200;-59
2022/12/04 04:00:57;;;;;;;16.27;12.15;;;;;;;7.02;100.00;102896.09;2064056;28;20192;-59
2022/12/04 04:02:00;;;;;;;16.05;11.80;;;;;;;7.03;100.00;102901.22;2064106;28;20670;-59
2022/12/04 04:03:29;;;;;;;17.77;12.40;;;;;;;7.04;100.00;102896.53;2064771;28;20203;-60
2022/12/04 04:04:34;;;;;;;17.05;11.85;;;;;;;7.02;100.00;102896.88;2060516;28;20982;-59
2022/12/04 04:05:37;;;;;;;15.38;11.70;;;;;;;6.99;100.00;102899.53;2065020;28;20661;-60
2022/12/04 04:06:41;;;;;;;15.40;11.45;;;;;;;7.01;100.00;102897.22;2064767;28;20195;-59
2022/12/04 04:08:24;;;;;;;15.00;11.23;;;;;;;7.03;100.00;102903.22;2064862;28;20189;-59
2022/12/04 04:09:24;;;;;;;15.13;11.40;;;;;;;7.02;100.00;102896.88;2064552;28;20203;-59
2022/12/04 04:10:26;;;;;;;14.43;11.20;;;;;;;6.90;100.00;102876.84;2064581;28;20182;-59
2022/12/04 04:11:31;;;;;;;13.98;10.90;;;;;;;6.54;100.00;102855.00;2064272;28;20624;-60
2022/12/04 04:12:39;;;;;;;15.25;10.82;;;;;;;6.95;100.00;102898.63;2065054;28;20267;-59
2022/12/04 04:25:04;;;;;;;11.15;7.60;;;;;;;6.86;100.00;102901.56;2064405;28;20185;-60
2022/12/04 04:26:07;;;;;;;13.10;7.80;;;;;;;6.83;100.00;102888.47;2064582;28;20275;-59
2022/12/04 04:27:08;;;;;;;11.35;7.90;;;;;;;6.90;100.00;102907.97;2064581;28;20451;-59
2022/12/04 04:28:28;;;;;;;10.63;7.73;;;;;;;6.91;100.00;102895.78;2064723;28;20195;-59
2022/12/04 04:29:29;;;;;;;9.40;7.78;;;;;;;6.92;100.00;102902.91;2063943;28;20202;-60
2022/12/04 04:30:31;;;;;;;11.37;7.77;;;;;;;6.97;100.00;102896.34;2064471;28;20192;-59
2022/12/04 04:31:52;;;;;;;10.50;8.23;;;;;;;7.01;100.00;102898.03;2064112;28;20561;-59
2022/12/04 04:33:10;;;;;;;10.10;7.88;;;;;;;7.00;100.00;102901.97;2064457;28;20196;-59
2022/12/04 04:34:38;;;;;;;10.43;7.68;;;;;;;7.00;100.00;102898.38;2064427;28;20228;-59
2022/12/04 04:35:57;;;;;;;11.55;7.90;;;;;;;6.99;100.00;102905.06;2063815;28;20207;-60
2022/12/04 04:37:10;;;;;;;10.23;7.50;;;;;;;6.99;100.00;102903.13;2064438;28;20184;-59
2022/12/04 04:38:38;;;;;;;10.73;7.93;;;;;;;6.98;100.00;102903.47;2064664;28;20471;-59
2022/12/04 04:39:58;;;;;;;9.88;7.43;;;;;;;6.99;100.00;102905.88;2059876;28;20963;-59
2022/12/04 04:41:14;;;;;;;11.00;7.85;;;;;;;6.34;100.00;102800.91;2063546;28;20328;-59
2022/12/04 04:42:29;;;;;;;8.83;6.93;;;;;;;6.97;100.00;102908.16;2063861;28;20184;-60
2022/12/04 04:43:48;;;;;;;10.75;7.65;;;;;;;6.95;100.00;102910.47;2064131;28;20539;-59
2022/12/04 04:45:12;;;;;;;11.45;7.60;;;;;;;6.94;100.00;102910.81;2064343;28;20704;-60
2022/12/04 04:46:21;;;;;;;10.32;7.25;;;;;;;6.94;100.00;102911.66;2064486;28;20179;-59
2022/12/04 04:47:33;;;;;;;10.57;7.28;;;;;;;6.89;100.00;102922.94;2064444;28;20268;-59
2022/12/04 04:48:39;;;;;;;10.77;7.72;;;;;;;6.56;100.00;102867.25;2064489;28;20656;-60
2022/12/04 04:49:42;;;;;;;12.38;7.75;;;;;;;6.54;100.00;102860.50;2064063;28;20184;-59
2022/12/04 04:50:44;;;;;;;13.23;7.38;;;;;;;6.17;100.00;102799.28;2064063;28;20198;-59
2022/12/04 04:51:45;;;;;;;9.48;7.50;;;;;;;6.93;100.00;102920.25;2064206;28;20721;-60
2022/12/04 04:52:50;;;;;;;9.50;7.95;;;;;;;6.21;100.00;102789.13;2064405;28;20276;-60
2022/12/04 04:53:55;;;;;;;9.30;7.20;;;;;;;6.24;100.00;102793.16;2064437;28;20255;-60
2022/12/04 04:54:58;;;;;;;9.17;7.57;;;;;;;6.96;100.00;102911.28;2063952;28;20285;-59
2022/12/04 04:55:58;;;;;;;10.18;7.43;;;;;;;6.87;100.00;102911.44;2064255;28;20459;-59
2022/12/04 04:56:59;;;;;;;9.33;6.77;;;;;;;6.90;100.00;102902.47;2064417;28;20196;-60
2022/12/04 04:58:11;;;;;;;9.67;6.90;;;;;;;6.92;100.00;102907.63;2064315;28;20232;-59
2022/12/04 04:59:12;;;;;;;9.48;6.70;;;;;;;6.89;100.00;102909.16;2064191;28;20233;-59
2022/12/04 05:00:16;;;;;;;9.63;7.30;;;;;;;6.82;100.00;102917.19;2064266;28;20203;-59
2022/12/04 05:01:21;;;;;;;10.63;6.95;;;;;;;6.86;100.00;102900.75;2063876;28;20188;-59
2022/12/04 05:02:24;;;;;;;10.13;7.00;;;;;;;6.84;100.00;102898.38;2064376;28;20195;-59
2022/12/04 05:03:26;;;;;;;9.13;6.85;;;;;;;6.80;100.00;102902.97;2064320;28;20250;-59
2022/12/04 05:04:26;;;;;;;10.55;7.45;;;;;;;6.76;100.00;102888.28;2063826;28;20203;-59
2022/12/04 05:05:26;;;;;;;8.80;6.60;;;;;;;6.82;100.00;102902.63;2064594;28;20188;-59
2022/12/04 05:06:27;;;;;;;9.50;6.80;;;;;;;6.80;100.00;102908.50;2064339;28;20218;-59
2022/12/04 05:07:27;;;;;;;8.73;7.00;;;;;;;6.86;100.00;102911.78;2064342;28;20558;-59
2022/12/04 05:08:28;;;;;;;10.17;6.43;;;;;;;6.83;100.00;102904.22;2064275;28;20200;-60
2022/12/04 05:09:28;;;;;;;8.77;6.23;;;;;;;6.84;100.00;102906.63;2063814;28;20251;-59
2022/12/04 05:10:29;;;;;;;9.37;6.50;;;;;;;6.88;100.00;102907.50;2064302;28;20555;-59
2022/12/04 05:11:29;;;;;;;9.80;7.00;;;;;;;6.85;100.00;102901.91;2063658;28;20222;-59
2022/12/04 05:12:30;;;;;;;10.73;6.93;;;;;;;6.84;100.00;102905.81;2064487;28;20189;-59
2022/12/04 05:13:31;;;;;;;8.07;6.07;;;;;;;6.84;100.00;102908.59;2063674;28;20579;-59
2022/12/04 05:14:32;;;;;;;9.98;6.65;;;;;;;6.84;100.00;102900.31;2063398;28;20198;-59
2022/12/04 05:15:32;;;;;;;9.27;6.57;;;;;;;6.79;100.00;102893.13;2063697;28;20628;-59